ADDS METAR Data INFO
IDs: Format: Raw Decoded Include TAF

Data at: 1132 UTC 29 May 2017

KMNZ 291115Z AUTO 34007KT 10SM CLR 19/19 A3002 RMK AO2 T01940194
KMNZ 291055Z AUTO 33006KT 10SM CLR 19/19 A3003 RMK AO2 T01940194
KMNZ 291035Z AUTO 34004KT 10SM CLR 20/20 A3004 RMK AO2 T01950195
KMNZ 291015Z AUTO 00000KT 10SM CLR 19/19 A3003 RMK AO2 T01940194
KMNZ 290955Z AUTO 36003KT 10SM CLR 20/20 A3002 RMK AO2 T01950195
KMNZ 290935Z AUTO 00000KT 10SM CLR 20/20 A3002 RMK AO2 T02000200
KMNZ 290915Z AUTO 35006KT 10SM CLR 20/20 A3000 RMK AO2 T02000200
KMNZ 290855Z AUTO 35007KT 10SM CLR 20/20 A3000 RMK AO2 T02000200
KMNZ 290840Z AUTO 36005KT 10SM CLR 20/20 A3001 RMK AO2 T01950195
KMNZ 290815Z AUTO 33004KT 10SM CLR 20/20 A3001 RMK AO2 T01980198
KMNZ 290755Z AUTO 00000KT 10SM CLR 21/20 A3002 RMK AO2 T02050203
KMNZ 290735Z AUTO 05003KT 10SM CLR 21/20 A3003 RMK AO2 T02070203
KMNZ 290715Z AUTO 06003KT 10SM CLR 21/21 A3003 RMK AO2 T02090205
KMNZ 290655Z AUTO 02006KT 10SM CLR 20/20 A3002 RMK AO2 T02010201
KMNZ 290635Z AUTO 35005KT 10SM CLR 21/21 A3002 RMK AO2 T02050205
KMNZ 290615Z AUTO 36006KT 10SM CLR 21/21 A3002 RMK AO2 T02050205
KMNZ 290555Z AUTO 35003KT 10SM CLR 21/21 A3003 RMK AO2 T02060206 10231 20202 402680202
KMNZ 290535Z AUTO 01007KT 10SM CLR 20/20 A3002 RMK AO2 T02020202
KMNZ 290515Z AUTO 36004KT 10SM CLR 21/21 A3004 RMK AO2 T02050205
KMNZ 290455Z AUTO 02005KT 10SM CLR 21/21 A3004 RMK AO2 T02060206
KMNZ 290435Z AUTO 36004KT 10SM SCT060 21/21 A3004 RMK AO2 T02080208
KMNZ 290415Z AUTO 35004KT 10SM SCT060 21/21 A3005 RMK AO2 T02120211
KMNZ 290355Z AUTO 01004KT 10SM CLR 22/21 A3006 RMK AO2 T02170207
KMNZ 290335Z AUTO 03007KT 10SM CLR 22/21 A3004 RMK AO2 LTG DSNT E AND SW T02180207
KMNZ 290315Z AUTO 04007KT 10SM CLR 22/21 A3004 RMK AO2 LTG DSNT E THRU SW T02200207
KMNZ 290255Z AUTO 03006KT 10SM SCT050 SCT060 22/21 A3003 RMK AO2 LTG DSNT SE THRU W T02180211
KMNZ 290235Z AUTO 02008KT 10SM VCTS BKN044 OVC060 22/22 A3001 RMK AO2 LTG DSNT E THRU W T02170216
KMNZ 290215Z AUTO 16003KT 10SM SCT020 SCT028 BKN044 22/22 A3003 RMK AO2 LTG DSNT ALQS T02160216
KMNZ 290155Z AUTO 23008KT 10SM SCT020 BKN042 OVC049 22/21 A3004 RMK AO2 LTG DSNT E THRU SW T02180214
KMNZ 290135Z AUTO 22006KT 10SM SCT029 BKN034 22/19 A3003 RMK AO2 LTG DSNT E THRU SW T02200194
KMNZ 290115Z AUTO 01003KT 10SM VCTS CLR 22/19 A2996 RMK AO2 LTG DSNT E THRU SW T02230190
KMNZ 290055Z AUTO 00000KT 10SM VCTS CLR 23/19 A2994 RMK AO2 LTG DSNT SE THRU SW T02250191
KMNZ 290035Z AUTO 04003KT 10SM VCTS SCT026 22/19 A2993 RMK AO2 LTG DSNT E THRU SW T02240193
KMNZ 290015Z AUTO 06006KT 10SM -TSRA BKN026 BKN050 OVC090 23/19 A2992 RMK AO2 LTG DSNT ALQS T02250194
KMNZ 282355Z AUTO 02010G16KT 10SM -TSRA SCT019 BKN026 OVC090 23/19 A2993 RMK AO2 LTG DSNT ALQS T02320191 10259 20232
KMNZ 282335Z AUTO 36012G20KT 10SM TS OVC019 24/19 A2995 RMK AO2 LTG DSNT NE THRU SW T02350193
KMNZ 282315Z AUTO 36012KT 10SM OVC019 24/20 A2999 RMK AO2 LTG DSNT S AND SW T02400196
KMNZ 282255Z AUTO 01012KT 10SM OVC019 25/20 A2997 RMK AO2 LTG DSNT S THRU NW T02450198
KMNZ 282235Z AUTO 01011G17KT 10SM OVC019 25/20 A2995 RMK AO2 LTG DSNT SE THRU W T02470200
KMNZ 282215Z AUTO 02013KT 10SM OVC019 25/20 A2995 RMK AO2 LTG DSNT SE AND S T02520201
KMNZ 282155Z AUTO 02012KT 10SM BKN019 OVC025 26/20 A2995 RMK AO2 LTG DSNT SE AND S T02560201
KMNZ 282135Z AUTO 03014G19KT 10SM OVC023 26/20 A2997 RMK AO2 T02550201
KMNZ 282115Z AUTO 03012KT 10SM OVC019 25/20 A2998 RMK AO2 T02520202
KMNZ 282055Z AUTO 02013KT 10SM OVC017 25/20 A2999 RMK AO2 LTG DSNT NE AND E T02470201
KMNZ 282035Z AUTO 02011KT 10SM OVC015 25/20 A2999 RMK AO2 T02490201
KMNZ 282015Z AUTO 02011KT 10SM OVC013 25/20 A2999 RMK AO2 T02450204
KMNZ 281955Z AUTO 02012G15KT 10SM OVC011 24/21 A2999 RMK AO2 T02430206
KMNZ 281935Z AUTO 02013KT 10SM OVC011 24/20 A2999 RMK AO2 T02380202
KMNZ 281915Z AUTO 01014KT 10SM OVC011 24/20 A2999 RMK AO2 LTG DSNT NE AND NW T02390203
KMNZ 281855Z AUTO 01013KT 10SM OVC009 24/20 A2999 RMK AO2 LTG DSNT NE AND NW T02360202
KMNZ 281835Z AUTO 01013KT 10SM OVC009 24/20 A2999 RMK AO2 T02400204
KMNZ 281815Z AUTO 02012KT 10SM OVC009 24/21 A3000 RMK AO2 T02370205
KMNZ 281755Z AUTO 02009KT 10SM OVC007 23/21 A2999 RMK AO2 T02320209 10265 20232
KMNZ 281735Z AUTO 02010KT 10SM OVC009 24/21 A2999 RMK AO2 T02350208
KMNZ 281715Z AUTO 03009KT 10SM OVC011 24/21 A2999 RMK AO2 T02380206
KMNZ 281655Z AUTO 02011KT 10SM OVC013 25/21 A2999 RMK AO2 T02450205
KMNZ 281635Z AUTO 36009KT 10SM OVC015 26/20 A2997 RMK AO2 T02550204
KMNZ 281615Z AUTO 03012G16KT 10SM OVC015 25/20 A2997 RMK AO2 T02540202
KMNZ 281555Z AUTO 01011KT 10SM OVC015 25/20 A2997 RMK AO2 T02460199
KMNZ 281535Z AUTO 01012KT 10SM OVC017 25/20 A2997 RMK AO2 T02460197
KMNZ 281515Z AUTO 36014G19KT 10SM BKN019 26/20 A2996 RMK AO2 T02580198
KMNZ 281455Z AUTO 01012KT 10SM OVC017 26/20 A2995 RMK AO2 T02570195
KMNZ 281435Z AUTO 36013G18KT 10SM OVC017 25/19 A2994 RMK AO2 T02530192
KMNZ 281415Z AUTO 36016G25KT 10SM BKN017 26/20 A2994 RMK AO2 T02570196
KMNZ 281355Z AUTO 34019G26KT 10SM BKN015 BKN023 26/20 A2993 RMK AO2 T02550196
KMNZ 281335Z AUTO 33012G15KT 10SM OVC013 26/22 A2992 RMK AO2 T02570217
KMNZ 281315Z AUTO 22005KT 10SM SCT013 27/24 A2992 RMK AO2 T02650244
KMNZ 281255Z AUTO 19005KT 10SM SCT032 26/25 A2990 RMK AO2 T02610245
KMNZ 281235Z AUTO 23004KT 7SM BKN032 25/25 A2990 RMK AO2 T02540245
KMNZ 281215Z AUTO 23006KT 7SM SCT030 SCT041 BKN065 25/24 A2990 RMK AO2 T02510241
KMNZ 281155Z AUTO 23005KT 10SM SCT037 BKN055 OVC065 25/24 A2989 RMK AO2 T02540240 10268 20247
KMNZ 281135Z AUTO 23007KT 10SM BKN046 OVC060 26/24 A2988 RMK AO2 T02560240
KMNZ 281115Z AUTO 23008KT 10SM SCT017 BKN048 OVC050 26/24 A2987 RMK AO2 T02550240
KMNZ 281055Z AUTO 29004KT 10SM OVC017 26/24 A2988 RMK AO2 T02550240
KMNZ 281035Z AUTO 34009KT 10SM SCT015 25/24 A2987 RMK AO2 T02470239
KMNZ 281015Z AUTO 22012KT 10SM CLR 25/24 A2981 RMK AO2 LTG DSNT E T02500236
KMNZ 280955Z AUTO 24014G20KT 10SM CLR 25/24 A2980 RMK AO2 T02500237
KMNZ 280935Z AUTO 25015KT 10SM CLR 25/24 A2980 RMK AO2 T02500236
KMNZ 280915Z AUTO 22013G18KT 10SM CLR 25/24 A2980 RMK AO2 T02520236
KMNZ 280855Z AUTO 22016G21KT 10SM CLR 25/24 A2980 RMK AO2 T02540235
KMNZ 280835Z AUTO 23010KT 10SM CLR 26/24 A2981 RMK AO2 LTG DSNT E T02550236
KMNZ 280815Z AUTO 21010KT 10SM CLR 26/24 A2981 RMK AO2 T02550239
KMNZ 280755Z AUTO 21012KT 10SM CLR 26/24 A2981 RMK AO2 T02550241
KMNZ 280735Z AUTO 20013G17KT 10SM CLR 26/24 A2981 RMK AO2 T02550242
KMNZ 280715Z AUTO 21011KT 10SM CLR 26/24 A2980 RMK AO2 T02570243
KMNZ 280655Z AUTO 21011KT 10SM CLR 26/24 A2981 RMK AO2 LTG DSNT SE T02590237
KMNZ 280635Z AUTO 20011KT 10SM CLR 26/23 A2981 RMK AO2 T02610233
KMNZ 280615Z AUTO 20012KT 10SM CLR 27/23 A2981 RMK AO2 T02650232
KMNZ 280555Z AUTO 19012KT 10SM CLR 27/23 A2982 RMK AO2 T02690230 10315 20269 403200251
KMNZ 280535Z AUTO 19014G21KT 10SM CLR 27/23 A2984 RMK AO2 T02710230
KMNZ 280515Z AUTO 19015G21KT 10SM CLR 27/23 A2984 RMK AO2 T02730230
KMNZ 280455Z AUTO 19014G19KT 10SM CLR 28/23 A2983 RMK AO2 T02750228
KMNZ 280435Z AUTO 18015G19KT 10SM CLR 28/23 A2983 RMK AO2 T02770228
KMNZ 280415Z AUTO 18013G18KT 10SM CLR 28/23 A2983 RMK AO2 T02780228
KMNZ 280355Z AUTO 00000KT 10SM CLR 28/23 A2983 RMK AO2 T02760227
KMNZ 280335Z AUTO 17013KT 10SM CLR 28/23 A2983 RMK AO2 T02800227
KMNZ 280315Z AUTO 18010KT 10SM CLR 28/23 A2983 RMK AO2 T02810228
KMNZ 280255Z AUTO 18011KT 10SM CLR 29/23 A2982 RMK AO2 T02850230
KMNZ 280235Z AUTO 17010KT 7SM CLR 29/23 A2982 RMK AO2 T02850232
KMNZ 280215Z AUTO 16010KT 7SM CLR 29/23 A2982 RMK AO2 T02870234
KMNZ 280155Z AUTO 17009KT 7SM CLR 29/24 A2982 RMK AO2 T02910235
KMNZ 280135Z AUTO 16008KT 5SM HZ CLR 30/24 A2981 RMK AO2 T02950238
KMNZ 280115Z AUTO 16008KT 7SM CLR 30/24 A2981 RMK AO2 T03000236
KMNZ 280055Z AUTO 17010KT 7SM CLR 31/24 A2981 RMK AO2 T03050236
KMNZ 280035Z AUTO 18010KT 7SM CLR 31/24 A2981 RMK AO2 T03100236
KMNZ 280015Z AUTO 18014G18KT 7SM CLR 31/24 A2981 RMK AO2 T03120235
KMNZ 272355Z AUTO 18016KT 7SM CLR 32/24 A2981 RMK AO2 T03150236 10320 20280
KMNZ 272335Z AUTO 18011KT 7SM CLR 32/24 A2982 RMK AO2 T03160237


Page loaded:  11:32 UTC  |   04:32 AM Pacific  |   05:32 AM Mountain  |   06:32 AM Central  |   07:32 AM Eastern

 

ADVISORIES

FORECASTS

FORECASTS

OBSERVATIONS

USER TOOLS

ABOUT US